createdAt,value
2018-05-29T00:01:34.983Z,24.97
2018-05-29T00:04:02.423Z,27.23
2018-05-29T00:06:29.865Z,23.70
2018-05-29T00:08:57.386Z,21.30
2018-05-29T00:11:24.930Z,23.73
2018-05-29T00:13:52.398Z,21.67
2018-05-29T00:16:19.861Z,25.57
2018-05-29T00:18:47.340Z,22.40
2018-05-29T00:21:14.875Z,25.43
2018-05-29T00:23:42.416Z,21.57
2018-05-29T00:26:09.903Z,24.53
2018-05-29T00:28:37.366Z,23.17
2018-05-29T00:31:04.803Z,22.80
2018-05-29T00:33:32.365Z,21.87
2018-05-29T00:35:59.789Z,22.63
2018-05-29T00:38:28.046Z,23.60
2018-05-29T00:40:55.493Z,22.67
2018-05-29T00:43:22.954Z,24.50
2018-05-29T00:45:50.410Z,22.10
2018-05-29T00:48:17.874Z,23.63
2018-05-29T00:50:45.322Z,25.03
2018-05-29T00:53:12.770Z,22.50
2018-05-29T00:55:40.214Z,23.47
2018-05-29T00:58:08.441Z,23.43
2018-05-29T01:00:36.687Z,25.57
2018-05-29T01:03:04.153Z,24.37
2018-05-29T01:05:31.597Z,23.20
2018-05-29T01:07:59.810Z,23.03
2018-05-29T01:10:27.254Z,26.10
2018-05-29T01:12:54.710Z,24.90
2018-05-29T01:15:22.146Z,25.57
2018-05-29T01:17:50.353Z,24.70
2018-05-29T01:20:17.796Z,25.80
2018-05-29T01:22:46.009Z,25.53
2018-05-29T01:25:13.442Z,25.37
2018-05-29T01:27:40.893Z,26.00
2018-05-29T01:30:09.114Z,25.50
2018-05-29T01:32:36.566Z,26.43
2018-05-29T01:35:04.014Z,26.77
2018-05-29T01:37:31.461Z,25.73
2018-05-29T01:39:58.897Z,24.77
2018-05-29T01:42:26.350Z,27.30
2018-05-29T01:44:53.891Z,26.00
2018-05-29T01:47:21.339Z,25.00
2018-05-29T01:49:48.783Z,26.10
2018-05-29T01:52:16.226Z,24.87
2018-05-29T01:54:44.447Z,27.53
2018-05-29T01:57:11.890Z,25.77
2018-05-29T01:59:39.381Z,26.37
2018-05-29T02:02:06.822Z,25.83
2018-05-29T02:04:34.337Z,29.80
2018-05-29T02:07:01.837Z,26.20
2018-05-29T02:09:29.282Z,27.40
2018-05-29T02:11:56.740Z,25.40
2018-05-29T02:14:24.967Z,26.97
2018-05-29T02:16:52.462Z,30.80
2018-05-29T02:19:20.687Z,26.77
2018-05-29T02:21:48.167Z,26.33
2018-05-29T02:24:15.622Z,28.00
2018-05-29T02:26:43.090Z,27.40
2018-05-29T02:29:10.544Z,28.87
2018-05-29T02:31:38.014Z,27.13
2018-05-29T02:34:05.486Z,26.90
2018-05-29T02:36:32.923Z,31.10
2018-05-29T02:39:00.399Z,30.30
2018-05-29T02:41:27.850Z,27.80
2018-05-29T02:43:55.319Z,34.67
2018-05-29T02:46:22.758Z,26.90
2018-05-29T02:48:50.206Z,33.03
2018-05-29T02:51:17.647Z,28.13
2018-05-29T02:53:45.866Z,33.80
2018-05-29T02:56:13.305Z,33.03
2018-05-29T02:58:40.758Z,33.40
2018-05-29T03:01:08.962Z,30.70
2018-05-29T03:03:36.418Z,29.70
2018-05-29T03:06:03.981Z,31.70
2018-05-29T03:08:31.467Z,33.43
2018-05-29T03:10:58.907Z,30.60
2018-05-29T03:13:26.350Z,32.53
2018-05-29T03:15:53.792Z,30.80
2018-05-29T03:18:22.027Z,28.70
2018-05-29T03:20:49.467Z,30.23
2018-05-29T03:23:16.954Z,35.10
2018-05-29T03:25:44.428Z,31.20
2018-05-29T03:28:11.867Z,28.23
2018-05-29T03:30:39.315Z,30.87
2018-05-29T03:33:06.801Z,30.70
2018-05-29T03:35:34.341Z,31.47
2018-05-29T03:38:01.778Z,29.97
2018-05-29T03:40:30.014Z,35.13
2018-05-29T03:42:57.644Z,33.13
2018-05-29T03:45:25.104Z,31.97
2018-05-29T03:47:52.554Z,33.03
2018-05-29T03:50:20.781Z,31.77
2018-05-29T03:52:48.222Z,29.80
2018-05-29T03:55:15.691Z,31.30
2018-05-29T03:57:43.163Z,35.60
2018-05-29T04:00:10.606Z,33.50
2018-05-29T04:02:38.062Z,33.30
2018-05-29T04:05:05.534Z,32.40
2018-05-29T04:07:32.977Z,34.00
2018-05-29T04:10:00.460Z,36.07
2018-05-29T04:12:27.878Z,34.73
2018-05-29T04:14:56.096Z,33.40
2018-05-29T04:17:23.562Z,34.10
2018-05-29T04:19:51.030Z,31.73
2018-05-29T04:22:18.502Z,30.90
2018-05-29T04:24:45.942Z,33.97
2018-05-29T04:27:13.434Z,32.00
2018-05-29T04:29:40.982Z,32.83
2018-05-29T04:32:08.373Z,34.20
2018-05-29T04:34:36.586Z,36.67
2018-05-29T04:37:04.035Z,34.40
2018-05-29T04:39:32.248Z,36.80
2018-05-29T04:41:59.686Z,32.50
2018-05-29T04:44:27.138Z,33.90
2018-05-29T04:46:54.578Z,35.40
2018-05-29T04:49:22.798Z,33.27
2018-05-29T04:51:50.234Z,35.07
2018-05-29T04:54:17.690Z,36.63
2018-05-29T04:56:45.942Z,30.00
2018-05-29T04:59:13.386Z,37.30
2018-05-29T05:01:40.830Z,31.77
2018-05-29T05:04:08.291Z,34.23
2018-05-29T05:06:35.731Z,36.40
2018-05-29T05:09:03.235Z,35.37
2018-05-29T05:11:31.382Z,36.60
2018-05-29T05:13:58.826Z,33.60
2018-05-29T05:16:26.282Z,36.50
2018-05-29T05:18:53.723Z,40.67
2018-05-29T05:21:21.941Z,33.07
2018-05-29T05:23:49.383Z,34.43
2018-05-29T05:26:16.858Z,34.13
2018-05-29T05:28:44.299Z,33.50
2018-05-29T05:31:12.530Z,31.53
2018-05-29T05:33:39.975Z,32.70
2018-05-29T05:36:07.431Z,31.77
2018-05-29T05:38:34.907Z,37.87
2018-05-29T05:41:02.350Z,32.17
2018-05-29T05:43:29.803Z,32.97
2018-05-29T05:45:57.254Z,35.90
2018-05-29T05:48:24.762Z,29.70
2018-05-29T05:50:52.226Z,32.03
2018-05-29T05:53:19.673Z,32.67
2018-05-29T05:55:47.146Z,31.23
2018-05-29T05:58:14.658Z,38.40
2018-05-29T06:00:42.902Z,37.17
2018-05-29T06:03:10.442Z,39.13
2018-05-29T06:05:37.890Z,32.80
2018-05-29T06:08:05.378Z,28.67
2018-05-29T06:10:32.930Z,37.80
2018-05-29T06:13:00.382Z,34.23
2018-05-29T06:15:27.834Z,36.77
2018-05-29T06:17:55.340Z,31.30
2018-05-29T06:20:22.782Z,32.33
2018-05-29T06:22:50.242Z,35.80
2018-05-29T06:25:17.702Z,26.60
2018-05-29T06:27:45.149Z,34.17
2018-05-29T06:30:12.632Z,27.70
2018-05-29T06:32:40.690Z,35.90
2018-05-29T06:35:08.142Z,28.67
2018-05-29T06:37:35.727Z,32.17
2018-05-29T06:40:03.182Z,32.63
2018-05-29T06:42:30.642Z,31.87
2018-05-29T06:44:58.126Z,30.00
2018-05-29T06:47:25.570Z,29.30
2018-05-29T06:49:53.055Z,31.53
2018-05-29T06:52:20.509Z,32.37
2018-05-29T06:54:47.949Z,28.33
2018-05-29T06:57:15.409Z,28.10
2018-05-29T06:59:42.841Z,29.47
2018-05-29T07:02:10.301Z,32.50
2018-05-29T07:04:37.866Z,28.23
2018-05-29T07:07:05.350Z,29.43
2018-05-29T07:09:33.518Z,27.37
2018-05-29T07:12:01.001Z,27.97
2018-05-29T07:14:28.486Z,27.97
2018-05-29T07:16:55.938Z,27.23
2018-05-29T07:19:23.392Z,30.50
2018-05-29T07:21:50.842Z,25.33
2018-05-29T07:24:18.306Z,24.93
2018-05-29T07:26:45.762Z,28.20
2018-05-29T07:29:13.275Z,26.10
2018-05-29T07:31:41.518Z,26.53
2018-05-29T07:34:08.973Z,30.00
2018-05-29T07:36:36.526Z,22.90
2018-05-29T07:39:04.129Z,24.93
2018-05-29T07:41:31.661Z,23.83
2018-05-29T07:43:59.125Z,23.63
2018-05-29T07:46:26.569Z,23.40
2018-05-29T07:48:54.011Z,22.07
2018-05-29T07:51:21.470Z,23.10
2018-05-29T07:53:49.687Z,27.47
2018-05-29T07:56:17.334Z,23.50
2018-05-29T07:58:44.800Z,14.77
2018-05-29T08:01:12.238Z,23.97
2018-05-29T08:03:39.681Z,23.50
2018-05-29T08:06:07.893Z,25.10
2018-05-29T08:08:35.334Z,23.70
2018-05-29T08:11:03.554Z,19.97
2018-05-29T08:13:31.006Z,16.63
2018-05-29T08:15:58.494Z,16.87
2018-05-29T08:18:25.942Z,19.53
2018-05-29T08:20:53.421Z,22.80
2018-05-29T08:23:20.879Z,18.93
2018-05-29T08:25:48.403Z,25.70
2018-05-29T08:28:15.838Z,16.93
2018-05-29T08:30:44.042Z,22.33
2018-05-29T08:33:11.761Z,24.83
2018-05-29T08:35:39.448Z,19.30
2018-05-29T08:38:07.179Z,21.90
2018-05-29T08:40:34.606Z,22.60
2018-05-29T08:43:02.067Z,22.93
2018-05-29T08:45:29.510Z,19.63
2018-05-29T08:47:56.967Z,21.30
2018-05-29T08:50:25.269Z,20.60
2018-05-29T08:52:52.711Z,26.13
2018-05-29T08:55:20.930Z,23.83
2018-05-29T08:57:48.377Z,20.80
2018-05-29T09:00:15.820Z,17.67
2018-05-29T09:02:43.262Z,18.50
2018-05-29T09:05:11.494Z,17.67
2018-05-29T09:07:38.941Z,20.43
2018-05-29T09:10:06.399Z,14.67
2018-05-29T09:12:33.879Z,20.47
2018-05-29T09:15:01.322Z,18.30
2018-05-29T09:17:28.809Z,25.13
2018-05-29T09:19:56.262Z,19.20
2018-05-29T09:22:23.699Z,17.50
2018-05-29T09:24:51.142Z,16.07
2018-05-29T09:27:19.444Z,17.53
2018-05-29T09:29:46.953Z,12.97
2018-05-29T09:32:15.097Z,14.77
2018-05-29T09:34:42.565Z,15.60
2018-05-29T09:37:10.044Z,15.67
2018-05-29T09:39:37.546Z,14.93
2018-05-29T09:42:05.770Z,15.50
2018-05-29T09:44:33.215Z,16.83
2018-05-29T09:47:00.662Z,15.73
2018-05-29T09:49:28.115Z,16.20
2018-05-29T09:51:55.622Z,15.53
2018-05-29T09:54:23.063Z,16.07
2018-05-29T09:56:50.516Z,15.13
2018-05-29T09:59:17.957Z,12.87
2018-05-29T10:01:45.399Z,12.97
2018-05-29T10:04:12.945Z,15.30
2018-05-29T10:06:40.451Z,14.37
2018-05-29T10:09:07.955Z,15.97
2018-05-29T10:11:35.410Z,15.27
2018-05-29T10:14:02.858Z,26.83
2018-05-29T10:16:30.412Z,15.80
2018-05-29T10:18:57.854Z,17.00
2018-05-29T10:21:26.078Z,16.10
2018-05-29T10:23:53.522Z,17.20
2018-05-29T10:26:20.974Z,16.53
2018-05-29T10:28:48.425Z,16.63
2018-05-29T10:31:15.862Z,17.43
2018-05-29T10:33:44.086Z,16.83
2018-05-29T10:36:11.511Z,15.43
2018-05-29T10:38:39.742Z,15.33
2018-05-29T10:41:07.207Z,17.33
2018-05-29T10:43:34.671Z,18.90
2018-05-29T10:46:02.134Z,17.33
2018-05-29T10:48:29.563Z,16.70
2018-05-29T10:50:57.066Z,15.50
2018-05-29T10:53:24.688Z,16.53
2018-05-29T10:55:52.122Z,17.23
2018-05-29T10:58:20.358Z,18.33
2018-05-29T11:00:47.798Z,17.80
2018-05-29T11:03:15.282Z,18.17
2018-05-29T11:05:42.727Z,21.83
2018-05-29T11:08:10.187Z,16.97
2018-05-29T11:10:37.627Z,18.53
2018-05-29T11:13:05.078Z,21.23
2018-05-29T11:15:33.281Z,19.83
2018-05-29T11:18:00.735Z,17.87
2018-05-29T11:20:28.226Z,20.07
2018-05-29T11:22:55.680Z,19.63
2018-05-29T11:25:23.142Z,16.77
2018-05-29T11:27:50.709Z,19.73
2018-05-29T11:30:18.149Z,19.00
2018-05-29T11:32:45.633Z,17.17
2018-05-29T11:35:13.097Z,18.17
2018-05-29T11:37:40.558Z,17.67
2018-05-29T11:40:08.011Z,17.33
2018-05-29T11:42:36.099Z,16.97
2018-05-29T11:45:03.586Z,19.27
2018-05-29T11:47:31.026Z,16.70
2018-05-29T11:49:58.485Z,15.63
2018-05-29T11:52:25.930Z,14.83
2018-05-29T11:54:53.415Z,15.93
2018-05-29T11:57:20.848Z,14.73
2018-05-29T11:59:48.301Z,15.10
2018-05-29T12:02:15.804Z,13.87
2018-05-29T12:04:43.242Z,15.27
2018-05-29T12:07:10.682Z,15.63
2018-05-29T12:09:38.138Z,14.50
2018-05-29T12:12:17.430Z,15.40
2018-05-29T12:14:44.878Z,15.93
2018-05-29T12:17:12.331Z,19.03
2018-05-29T12:19:39.819Z,14.87
2018-05-29T12:22:07.351Z,15.10
2018-05-29T12:24:34.806Z,13.80
2018-05-29T12:27:02.307Z,15.47
2018-05-29T12:29:30.530Z,15.90
2018-05-29T12:31:58.711Z,14.03
2018-05-29T12:34:26.216Z,14.00
2018-05-29T12:36:53.671Z,13.50
2018-05-29T12:39:21.110Z,13.83
2018-05-29T12:41:48.574Z,14.77
2018-05-29T12:44:16.046Z,14.00
2018-05-29T12:46:43.600Z,17.23
2018-05-29T12:49:11.045Z,16.87
2018-05-29T12:51:38.486Z,15.30
2018-05-29T12:54:05.986Z,13.60
2018-05-29T12:56:33.436Z,14.07
2018-05-29T12:59:00.894Z,12.90
2018-05-29T13:01:28.365Z,15.00
2018-05-29T13:03:55.835Z,13.40
2018-05-29T13:06:23.302Z,13.70
2018-05-29T13:08:50.830Z,15.07
2018-05-29T13:11:18.298Z,12.30
2018-05-29T13:13:46.574Z,13.50
2018-05-29T13:16:14.035Z,14.83
2018-05-29T13:18:46.146Z,12.63
2018-05-29T13:21:13.729Z,13.53
2018-05-29T13:23:41.242Z,12.70
2018-05-29T13:26:08.690Z,14.63
2018-05-29T13:28:36.187Z,14.30
2018-05-29T13:31:03.638Z,14.23
2018-05-29T13:33:31.077Z,13.37
2018-05-29T13:35:58.530Z,14.90
2018-05-29T13:38:25.970Z,13.30
2018-05-29T13:40:54.186Z,13.70
2018-05-29T13:43:21.625Z,14.67
2018-05-29T13:45:49.080Z,14.13
2018-05-29T13:48:16.527Z,14.63
2018-05-29T13:50:44.736Z,12.00
2018-05-29T13:53:13.102Z,12.23
2018-05-29T13:55:40.550Z,13.17
2018-05-29T13:58:09.799Z,12.50
2018-05-29T14:00:37.266Z,12.40
2018-05-29T14:03:04.807Z,12.30
2018-05-29T14:05:32.234Z,13.67
2018-05-29T14:08:00.458Z,13.63
2018-05-29T14:10:27.935Z,16.73
2018-05-29T14:12:55.422Z,14.83
2018-05-29T14:15:22.958Z,15.10
2018-05-29T14:17:50.427Z,13.77
2018-05-29T14:20:17.882Z,18.20
2018-05-29T14:22:45.346Z,17.03
2018-05-29T14:25:12.804Z,19.37
2018-05-29T14:27:40.266Z,15.57
2018-05-29T14:30:07.715Z,19.00
2018-05-29T14:32:35.162Z,19.73
2018-05-29T14:35:02.607Z,16.63
2018-05-29T14:37:30.857Z,20.47
2018-05-29T14:39:58.322Z,19.30
2018-05-29T14:42:25.827Z,19.07
2018-05-29T14:44:54.209Z,18.47
2018-05-29T14:47:21.655Z,18.23
2018-05-29T14:49:49.099Z,18.70
2018-05-29T14:52:16.570Z,22.97
2018-05-29T14:54:44.782Z,19.47
2018-05-29T14:57:12.235Z,15.00
2018-05-29T14:59:39.722Z,15.27
2018-05-29T15:02:07.183Z,16.90
2018-05-29T15:04:34.647Z,15.03
2018-05-29T15:07:02.099Z,16.50
2018-05-29T15:09:29.542Z,13.97
2018-05-29T15:11:56.994Z,15.83
2018-05-29T15:14:24.445Z,15.53
2018-05-29T15:16:52.666Z,22.00
2018-05-29T15:19:20.163Z,16.57
2018-05-29T15:21:47.699Z,17.10
2018-05-29T15:24:15.151Z,16.60
2018-05-29T15:26:42.630Z,16.10
2018-05-29T15:29:10.090Z,16.83
2018-05-29T15:31:37.534Z,17.23
2018-05-29T15:34:05.023Z,26.73
2018-05-29T15:36:32.574Z,21.93
2018-05-29T15:39:00.104Z,17.07
2018-05-29T15:41:27.590Z,23.63
2018-05-29T15:43:55.047Z,17.30
2018-05-29T15:46:22.494Z,19.03
2018-05-29T15:48:49.943Z,19.30
2018-05-29T15:51:17.383Z,24.20
2018-05-29T15:53:45.626Z,16.63
2018-05-29T15:56:13.079Z,19.83
2018-05-29T15:58:40.534Z,17.00
2018-05-29T16:01:07.978Z,16.33
2018-05-29T16:03:35.442Z,17.57
2018-05-29T16:06:02.930Z,17.93
2018-05-29T16:08:30.366Z,20.17
2018-05-29T16:10:57.811Z,23.87
2018-05-29T16:13:25.262Z,20.27
2018-05-29T16:15:53.561Z,21.90
2018-05-29T16:18:21.050Z,19.20
2018-05-29T16:20:48.486Z,21.60
2018-05-29T16:23:16.051Z,21.30
2018-05-29T16:25:43.474Z,19.90
2018-05-29T16:28:11.694Z,18.80
2018-05-29T16:30:39.161Z,19.60
2018-05-29T16:33:06.647Z,16.03
2018-05-29T16:35:34.102Z,14.60
2018-05-29T16:38:01.557Z,16.10
2018-05-29T16:40:29.047Z,14.67
2018-05-29T16:42:56.561Z,14.13
2018-05-29T16:45:23.986Z,12.93
2018-05-29T16:47:52.208Z,14.40
2018-05-29T16:50:19.658Z,15.63
2018-05-29T16:52:47.150Z,13.80
2018-05-29T16:55:14.609Z,17.13
2018-05-29T16:57:42.050Z,12.33
2018-05-29T17:00:09.556Z,14.80
2018-05-29T17:02:36.989Z,14.17
2018-05-29T17:05:04.438Z,14.50
2018-05-29T17:07:31.886Z,16.07
2018-05-29T17:09:59.378Z,16.40
2018-05-29T17:12:26.842Z,17.77
2018-05-29T17:14:54.302Z,15.67
2018-05-29T17:17:21.774Z,18.63
2018-05-29T17:19:49.222Z,16.60
2018-05-29T17:22:16.666Z,18.43
2018-05-29T17:24:44.118Z,16.37
2018-05-29T17:27:11.582Z,15.97
2018-05-29T17:29:39.041Z,14.43
2018-05-29T17:32:06.486Z,16.00
2018-05-29T17:34:34.696Z,13.57
2018-05-29T17:37:02.248Z,14.10
2018-05-29T17:39:29.745Z,15.13
2018-05-29T17:41:57.199Z,15.40
2018-05-29T17:44:24.659Z,13.20
2018-05-29T17:46:52.102Z,18.03
2018-05-29T17:49:19.563Z,13.03
2018-05-29T17:51:47.062Z,14.20
2018-05-29T17:54:14.514Z,16.40
2018-05-29T17:56:41.959Z,15.57
2018-05-29T17:59:09.411Z,14.10
2018-05-29T18:01:36.858Z,13.40
2018-05-29T18:04:04.335Z,13.27
2018-05-29T18:06:31.779Z,14.07
2018-05-29T18:09:00.005Z,15.20
2018-05-29T18:11:27.450Z,13.83
2018-05-29T18:13:54.964Z,15.27
2018-05-29T18:16:22.992Z,13.60
2018-05-29T18:18:50.512Z,15.60
2018-05-29T18:21:17.955Z,14.30
2018-05-29T18:23:46.165Z,13.60
2018-05-29T18:26:13.654Z,13.90
2018-05-29T18:28:41.189Z,14.43
2018-05-29T18:31:08.681Z,14.47
2018-05-29T18:33:36.138Z,17.37
2018-05-29T18:36:03.629Z,16.70
2018-05-29T18:38:31.111Z,15.37
2018-05-29T18:40:58.518Z,12.60
2018-05-29T18:43:25.963Z,16.40
2018-05-29T18:45:53.445Z,11.83
2018-05-29T18:48:20.982Z,14.43
2018-05-29T18:50:52.396Z,12.73
2018-05-29T18:53:20.398Z,14.17
2018-05-29T18:55:48.133Z,14.47
2018-05-29T18:58:15.832Z,11.40
2018-05-29T19:00:44.359Z,12.47
2018-05-29T19:03:12.075Z,16.83
2018-05-29T19:05:40.841Z,12.67
2018-05-29T19:08:09.239Z,13.07
2018-05-29T19:10:36.830Z,17.63
2018-05-29T19:13:04.373Z,14.60
2018-05-29T19:15:33.123Z,12.77
2018-05-29T19:18:01.457Z,15.23
2018-05-29T19:20:28.918Z,15.10
2018-05-29T19:22:57.544Z,12.77
2018-05-29T19:25:24.989Z,11.90
2018-05-29T19:27:52.414Z,13.67
2018-05-29T19:30:20.640Z,12.23
2018-05-29T19:32:48.075Z,16.30
2018-05-29T19:35:15.545Z,15.63
2018-05-29T19:37:42.970Z,15.60
2018-05-29T19:40:11.187Z,15.30
2018-05-29T19:42:38.627Z,14.30
